Time,TemperatureF,DewpointF,PressureIn,WindDirection,WindDirectionDegrees,WindSpeedMPH,WindSpeedGustMPH,Humidity,HourlyPrecipIn,Conditions,Clouds,dailyrainin,SoftwareType,DateUTC
2013-06-22 00:06:00,54.8,47.0,30.12,NNW,331,1.0,1.0,76,0.00,,,0.00,weatherlink.com 1.10,2013-06-22 07:06:00,
2013-06-22 00:21:00,54.7,48.0,30.12,NNW,330,0.0,1.0,77,0.00,,,0.00,weatherlink.com 1.10,2013-06-22 07:21:00,
2013-06-22 00:36:00,54.5,47.0,30.11,WSW,246,0.0,38.0,77,0.00,,,0.00,weatherlink.com 1.10,2013-06-22 07:36:00,
2013-06-22 00:51:00,54.0,47.0,30.12,WSW,246,0.0,55.0,78,0.00,,,0.00,weatherlink.com 1.10,2013-06-22 07:51:00,
2013-06-22 01:06:00,53.6,47.0,30.12,WSW,246,0.0,1.0,79,0.00,,,0.00,weatherlink.com 1.10,2013-06-22 08:06:00,
2013-06-22 01:22:00,53.2,47.0,30.11,WSW,246,0.0,214.0,80,0.00,,,0.00,weatherlink.com 1.10,2013-06-22 08:22:00,
2013-06-22 01:37:00,52.7,47.0,30.11,WSW,246,0.0,0.0,81,0.00,,,0.00,weatherlink.com 1.10,2013-06-22 08:37:00,
2013-06-22 01:52:00,52.4,47.0,30.11,WSW,246,0.0,1.0,82,0.00,,,0.00,weatherlink.com 1.10,2013-06-22 08:52:00,
2013-06-22 02:07:00,52.1,47.0,30.10,WSW,246,0.0,1.0,84,0.00,,,0.00,weatherlink.com 1.10,2013-06-22 09:07:00,
2013-06-22 02:22:00,52.0,48.0,30.10,NE,47,0.0,1.0,85,0.00,,,0.00,weatherlink.com 1.10,2013-06-22 09:22:00,
2013-06-22 02:37:00,51.5,47.0,30.10,NE,47,0.0,36.0,85,0.00,,,0.00,weatherlink.com 1.10,2013-06-22 09:37:00,
2013-06-22 02:52:00,51.0,47.0,30.10,NE,47,0.0,1.0,87,0.00,,,0.00,weatherlink.com 1.10,2013-06-22 09:52:00,
2013-06-22 03:07:00,50.8,47.0,30.10,NE,47,0.0,1.0,88,0.00,,,0.00,weatherlink.com 1.10,2013-06-22 10:07:00,
2013-06-22 03:22:00,50.8,47.0,30.10,NE,47,0.0,0.0,88,0.00,,,0.00,weatherlink.com 1.10,2013-06-22 10:22:00,
2013-06-22 03:37:00,50.6,48.0,30.10,NE,47,0.0,1.0,89,0.00,,,0.00,weatherlink.com 1.10,2013-06-22 10:37:00,
2013-06-22 03:52:00,50.8,48.0,30.09,NE,47,1.0,1.0,89,0.00,,,0.00,weatherlink.com 1.10,2013-06-22 10:52:00,
2013-06-22 04:07:00,51.3,48.0,30.09,NE,47,0.0,0.0,89,0.00,,,0.00,weatherlink.com 1.10,2013-06-22 11:07:00,
2013-06-22 04:22:00,51.8,48.0,30.09,NE,47,0.0,0.0,87,0.00,,,0.00,weatherlink.com 1.10,2013-06-22 11:22:00,
2013-06-22 04:37:00,52.2,48.0,30.09,NE,47,0.0,0.0,86,0.00,,,0.00,weatherlink.com 1.10,2013-06-22 11:37:00,
2013-06-22 04:52:00,52.4,48.0,30.09,NE,47,0.0,0.0,85,0.00,,,0.00,weatherlink.com 1.10,2013-06-22 11:52:00,
2013-06-22 05:07:00,52.1,48.0,30.09,NE,47,0.0,0.0,86,0.00,,,0.00,weatherlink.com 1.10,2013-06-22 12:07:00,
2013-06-22 05:22:00,52.0,48.0,30.09,NE,47,0.0,0.0,86,0.00,,,0.00,weatherlink.com 1.10,2013-06-22 12:22:00,
2013-06-22 05:37:00,51.7,48.0,30.09,NE,47,0.0,0.0,87,0.00,,,0.00,weatherlink.com 1.10,2013-06-22 12:37:00,
2013-06-22 05:52:00,51.3,48.0,30.09,NE,47,0.0,0.0,87,0.00,,,0.00,weatherlink.com 1.10,2013-06-22 12:52:00,
2013-06-22 06:07:00,50.8,47.0,30.09,NE,47,0.0,0.0,88,0.00,,,0.00,weatherlink.com 1.10,2013-06-22 13:07:00,
2013-06-22 06:22:00,50.2,47.0,30.09,NE,47,0.0,0.0,88,0.00,,,0.00,weatherlink.com 1.10,2013-06-22 13:22:00,
2013-06-22 06:37:00,49.9,47.0,30.09,NE,47,0.0,0.0,90,0.00,,,0.00,weatherlink.com 1.10,2013-06-22 13:37:00,
2013-06-22 06:52:00,50.1,48.0,30.09,NE,47,0.0,0.0,91,0.00,,,0.00,weatherlink.com 1.10,2013-06-22 13:52:00,
2013-06-22 07:07:00,50.6,48.0,30.09,NE,47,0.0,0.0,90,0.00,,,0.00,weatherlink.com 1.10,2013-06-22 14:07:00,
2013-06-22 07:23:00,51.2,48.0,30.09,NE,47,0.0,0.0,89,0.00,,,0.00,weatherlink.com 1.10,2013-06-22 14:23:00,
2013-06-22 07:37:00,52.4,48.0,30.09,NE,47,0.0,62.0,85,0.00,,,0.00,weatherlink.com 1.10,2013-06-22 14:37:00,
2013-06-22 07:52:00,53.3,48.0,30.09,NE,47,0.0,87.0,82,0.00,,,0.00,weatherlink.com 1.10,2013-06-22 14:52:00,
2013-06-22 08:07:00,54.3,48.0,30.08,NE,47,0.0,2.0,80,0.00,,,0.00,weatherlink.com 1.10,2013-06-22 15:07:00,
2013-06-22 08:22:00,55.4,48.0,30.08,NE,47,0.0,1.0,76,0.00,,,0.00,weatherlink.com 1.10,2013-06-22 15:22:00,
2013-06-22 08:37:00,56.8,48.0,30.08,NNE,22,0.0,3.0,73,0.00,,,0.00,weatherlink.com 1.10,2013-06-22 15:37:00,
2013-06-22 08:52:00,58.2,48.0,30.08,East,84,1.0,2.0,69,0.00,,,0.00,weatherlink.com 1.10,2013-06-22 15:52:00,
2013-06-22 09:08:00,59.1,49.0,30.07,SSE,162,0.0,1.0,70,0.00,,,0.00,weatherlink.com 1.10,2013-06-22 16:08:00,
2013-06-22 09:23:00,60.1,49.0,30.07,NE,50,0.0,3.0,68,0.00,,,0.00,weatherlink.com 1.10,2013-06-22 16:23:00,
2013-06-22 09:38:00,61.1,50.0,30.07,NNW,333,0.0,2.0,66,0.00,,,0.00,weatherlink.com 1.10,2013-06-22 16:38:00,
2013-06-22 09:53:00,62.0,49.0,30.07,NE,46,0.0,2.0,63,0.00,,,0.00,weatherlink.com 1.10,2013-06-22 16:53:00,
2013-06-22 10:08:00,63.2,50.0,30.06,NE,53,0.0,3.0,63,0.00,,,0.00,weatherlink.com 1.10,2013-06-22 17:08:00,
2013-06-22 10:23:00,64.4,51.0,30.06,SSW,200,2.0,2.0,62,0.00,,,0.00,weatherlink.com 1.10,2013-06-22 17:23:00,
2013-06-22 10:38:00,65.3,51.0,30.05,NW,326,2.0,4.0,60,0.00,,,0.00,weatherlink.com 1.10,2013-06-22 17:38:00,
2013-06-22 10:53:00,66.2,50.0,30.05,SE,128,2.0,3.0,57,0.00,,,0.00,weatherlink.com 1.10,2013-06-22 17:53:00,
2013-06-22 11:08:00,67.5,51.0,30.04,SSE,152,0.0,57.0,55,0.00,,,0.00,weatherlink.com 1.10,2013-06-22 18:08:00,
2013-06-22 11:23:00,69.4,51.0,30.03,NNE,12,2.0,3.0,52,0.00,,,0.00,weatherlink.com 1.10,2013-06-22 18:23:00,
2013-06-22 11:38:00,70.3,51.0,30.03,NNE,16,1.0,3.0,50,0.00,,,0.00,weatherlink.com 1.10,2013-06-22 18:38:00,
2013-06-22 11:54:00,71.8,50.0,30.02,NE,39,0.0,2.0,46,0.00,,,0.00,weatherlink.com 1.10,2013-06-22 18:54:00,
2013-06-22 12:08:00,72.6,51.0,30.02,North,359,3.0,3.0,47,0.00,,,0.00,weatherlink.com 1.10,2013-06-22 19:08:00,
2013-06-22 12:23:00,73.3,49.0,30.01,South,186,0.0,4.0,43,0.00,,,0.00,weatherlink.com 1.10,2013-06-22 19:23:00,
2013-06-22 12:38:00,74.0,51.0,30.00,ENE,71,0.0,3.0,44,0.00,,,0.00,weatherlink.com 1.10,2013-06-22 19:38:00,
2013-06-22 12:55:00,74.3,49.0,30.00,NNE,16,1.0,5.0,41,0.00,,,0.00,weatherlink.com 1.10,2013-06-22 19:55:00,
2013-06-22 13:09:00,75.2,49.0,29.99,ESE,103,1.0,4.0,40,0.00,,,0.00,weatherlink.com 1.10,2013-06-22 20:09:00,
2013-06-22 13:24:00,76.2,50.0,29.99,WSW,241,1.0,4.0,40,0.00,,,0.00,weatherlink.com 1.10,2013-06-22 20:24:00,
2013-06-22 13:39:00,76.1,46.0,29.98,SW,229,1.0,4.0,35,0.00,,,0.00,weatherlink.com 1.10,2013-06-22 20:39:00,
2013-06-22 13:54:00,77.2,46.0,29.98,SSW,194,0.0,5.0,33,0.00,,,0.00,weatherlink.com 1.10,2013-06-22 20:54:00,
2013-06-22 14:09:00,77.6,47.0,29.97,South,186,0.0,2.0,34,0.00,,,0.00,weatherlink.com 1.10,2013-06-22 21:09:00,
2013-06-22 14:24:00,79.3,46.0,29.96,NNE,12,1.0,4.0,31,0.00,,,0.00,weatherlink.com 1.10,2013-06-22 21:24:00,
2013-06-22 14:39:00,80.6,48.0,29.96,North,358,3.0,3.0,32,0.00,,,0.00,weatherlink.com 1.10,2013-06-22 21:39:00,
2013-06-22 14:55:00,80.4,46.0,29.95,West,281,1.0,3.0,30,0.00,,,0.00,weatherlink.com 1.10,2013-06-22 21:55:00,
2013-06-22 15:09:00,80.6,47.0,29.95,NE,46,1.0,3.0,31,0.00,,,0.00,weatherlink.com 1.10,2013-06-22 22:09:00,
2013-06-22 15:25:00,80.6,46.0,29.94,NNW,332,1.0,5.0,30,0.00,,,0.00,weatherlink.com 1.10,2013-06-22 22:25:00,
2013-06-22 15:39:00,80.6,46.0,29.94,ESE,116,2.0,3.0,29,0.00,,,0.00,weatherlink.com 1.10,2013-06-22 22:39:00,
2013-06-22 15:55:00,80.7,46.0,29.93,East,80,2.0,3.0,29,0.00,,,0.00,weatherlink.com 1.10,2013-06-22 22:55:00,
2013-06-22 16:10:00,80.6,46.0,29.93,SE,145,1.0,5.0,29,0.00,,,0.00,weatherlink.com 1.10,2013-06-22 23:10:00,
2013-06-22 16:25:00,80.7,47.0,29.92,ESE,112,1.0,4.0,30,0.00,,,0.00,weatherlink.com 1.10,2013-06-22 23:25:00,
2013-06-22 16:40:00,79.3,45.0,29.92,ESE,102,0.0,3.0,30,0.00,,,0.00,weatherlink.com 1.10,2013-06-22 23:40:00,
2013-06-22 16:55:00,78.6,46.0,29.91,East,97,0.0,2.0,32,0.00,,,0.00,weatherlink.com 1.10,2013-06-22 23:55:00,
2013-06-22 17:10:00,80.1,47.0,29.91,ESE,102,1.0,2.0,31,0.00,,,0.00,weatherlink.com 1.10,2013-06-23 00:10:00,
2013-06-22 17:25:00,80.3,48.0,29.90,East,86,0.0,5.0,32,0.00,,,0.00,weatherlink.com 1.10,2013-06-23 00:25:00,
2013-06-22 17:39:00,80.3,47.0,29.89,SSW,212,0.0,3.0,31,0.00,,,0.00,weatherlink.com 1.10,2013-06-23 00:39:00,
2013-06-22 17:55:00,79.5,47.0,29.89,WSW,244,1.0,2.0,32,0.00,,,0.00,weatherlink.com 1.10,2013-06-23 00:55:00,
2013-06-22 18:10:00,78.2,48.0,29.88,ENE,65,0.0,3.0,34,0.00,,,0.00,weatherlink.com 1.10,2013-06-23 01:10:00,
2013-06-22 18:25:00,76.9,48.0,29.88,ENE,75,0.0,2.0,36,0.00,,,0.00,weatherlink.com 1.10,2013-06-23 01:25:00,
2013-06-22 18:40:00,76.1,48.0,29.88,NE,50,0.0,3.0,37,0.00,,,0.00,weatherlink.com 1.10,2013-06-23 01:40:00,
2013-06-22 18:55:00,75.2,48.0,29.88,NE,48,0.0,2.0,39,0.00,,,0.00,weatherlink.com 1.10,2013-06-23 01:55:00,
2013-06-22 19:10:00,74.6,50.0,29.88,NE,48,1.0,3.0,42,0.00,,,0.00,weatherlink.com 1.10,2013-06-23 02:10:00,
2013-06-22 19:25:00,73.8,50.0,29.88,NE,48,0.0,3.0,44,0.00,,,0.00,weatherlink.com 1.10,2013-06-23 02:25:00,
2013-06-22 19:40:00,72.6,51.0,29.88,NE,50,0.0,2.0,47,0.00,,,0.00,weatherlink.com 1.10,2013-06-23 02:40:00,
2013-06-22 19:55:00,71.6,51.0,29.87,NE,50,0.0,1.0,49,0.00,,,0.00,weatherlink.com 1.10,2013-06-23 02:55:00,
2013-06-22 20:10:00,71.2,53.0,29.87,NE,50,0.0,1.0,52,0.00,,,0.00,weatherlink.com 1.10,2013-06-23 03:10:00,
2013-06-22 20:25:00,70.6,52.0,29.87,NE,50,0.0,0.0,53,0.00,,,0.00,weatherlink.com 1.10,2013-06-23 03:25:00,
2013-06-22 20:40:00,69.4,53.0,29.87,NE,51,0.0,0.0,56,0.00,,,0.00,weatherlink.com 1.10,2013-06-23 03:40:00,
2013-06-22 20:55:00,67.4,53.0,29.87,NE,50,0.0,1.0,60,0.00,,,0.00,weatherlink.com 1.10,2013-06-23 03:55:00,
2013-06-22 21:10:00,65.6,53.0,29.87,NE,50,0.0,2.0,63,0.00,,,0.00,weatherlink.com 1.10,2013-06-23 04:10:00,
2013-06-22 21:25:00,64.8,51.0,29.87,NE,50,0.0,0.0,62,0.00,,,0.00,weatherlink.com 1.10,2013-06-23 04:25:00,
2013-06-22 21:41:00,64.5,51.0,29.87,NE,50,0.0,0.0,63,0.00,,,0.00,weatherlink.com 1.10,2013-06-23 04:41:00,
2013-06-22 21:55:00,64.3,51.0,29.87,NE,50,0.0,0.0,63,0.00,,,0.00,weatherlink.com 1.10,2013-06-23 04:55:00,
2013-06-22 22:10:00,64.2,51.0,29.88,NE,50,0.0,0.0,63,0.00,,,0.00,weatherlink.com 1.10,2013-06-23 05:10:00,
2013-06-22 22:25:00,64.7,52.0,29.87,NE,51,0.0,0.0,63,0.00,,,0.00,weatherlink.com 1.10,2013-06-23 05:25:00,
2013-06-22 22:40:00,64.9,51.0,29.87,NE,49,0.0,0.0,62,0.00,,,0.00,weatherlink.com 1.10,2013-06-23 05:40:00,
2013-06-22 22:55:00,64.9,51.0,29.88,NE,50,0.0,0.0,62,0.00,,,0.00,weatherlink.com 1.10,2013-06-23 05:55:00,
2013-06-22 23:10:00,64.7,52.0,29.87,NE,50,0.0,0.0,63,0.00,,,0.00,weatherlink.com 1.10,2013-06-23 06:10:00,
2013-06-22 23:25:00,64.7,51.0,29.87,NE,49,0.0,0.0,62,0.00,,,0.00,weatherlink.com 1.10,2013-06-23 06:25:00,
2013-06-22 23:40:00,64.2,52.0,29.87,NE,50,0.0,0.0,65,0.00,,,0.00,weatherlink.com 1.10,2013-06-23 06:40:00,
2013-06-22 23:55:00,64.0,51.0,29.87,NE,51,0.0,0.0,64,0.00,,,0.00,weatherlink.com 1.10,2013-06-23 06:55:00,